createdAt,value
2019-03-16T00:01:37.890Z,79.35
2019-03-16T00:04:03.704Z,79.35
2019-03-16T00:06:29.493Z,79.37
2019-03-16T00:08:55.320Z,79.27
2019-03-16T00:11:21.111Z,79.33
2019-03-16T00:13:46.912Z,79.71
2019-03-16T00:16:12.695Z,79.92
2019-03-16T00:18:38.484Z,80.02
2019-03-16T00:21:04.275Z,80.26
2019-03-16T00:23:30.076Z,80.22
2019-03-16T00:25:55.859Z,79.94
2019-03-16T00:28:21.666Z,80.24
2019-03-16T00:30:47.440Z,80.80
2019-03-16T00:33:13.242Z,81.53
2019-03-16T00:35:39.020Z,81.81
2019-03-16T00:38:04.800Z,82.22
2019-03-16T00:40:30.608Z,82.36
2019-03-16T00:42:56.395Z,82.26
2019-03-16T00:45:22.189Z,82.08
2019-03-16T00:47:47.973Z,82.12
2019-03-16T00:50:13.913Z,81.95
2019-03-16T00:52:39.756Z,81.84
2019-03-16T00:55:06.857Z,81.99
2019-03-16T00:57:32.780Z,82.09
2019-03-16T00:59:58.581Z,81.69
2019-03-16T01:02:27.248Z,81.63
2019-03-16T01:04:52.055Z,81.31
2019-03-16T01:07:17.832Z,81.21
2019-03-16T01:09:43.901Z,81.36
2019-03-16T01:12:09.690Z,81.32
2019-03-16T01:14:35.563Z,81.37
2019-03-16T01:17:01.339Z,81.41
2019-03-16T01:19:27.230Z,81.45
2019-03-16T01:21:53.008Z,81.47
2019-03-16T01:24:18.832Z,81.00
2019-03-16T01:26:44.602Z,80.88
2019-03-16T01:29:10.391Z,80.88
2019-03-16T01:31:36.168Z,80.74
2019-03-16T01:34:01.966Z,80.62
2019-03-16T01:36:27.746Z,80.79
2019-03-16T01:38:53.536Z,80.61
2019-03-16T01:41:19.326Z,80.68
2019-03-16T01:43:45.103Z,80.51
2019-03-16T01:46:10.899Z,80.51
2019-03-16T01:48:36.674Z,80.74
2019-03-16T01:51:02.475Z,80.97
2019-03-16T01:53:28.251Z,80.99
2019-03-16T01:55:54.050Z,80.75
2019-03-16T01:58:19.830Z,81.02
2019-03-16T02:00:45.604Z,80.85
2019-03-16T02:03:11.398Z,80.90
2019-03-16T02:05:37.196Z,81.20
2019-03-16T02:08:02.971Z,81.33
2019-03-16T02:10:28.777Z,81.19
2019-03-16T02:12:54.553Z,81.43
2019-03-16T02:15:20.344Z,81.66
2019-03-16T02:17:46.121Z,81.58
2019-03-16T02:20:11.929Z,81.40
2019-03-16T02:22:37.708Z,81.38
2019-03-16T02:25:04.596Z,81.73
2019-03-16T02:27:30.372Z,81.85
2019-03-16T02:29:56.167Z,81.86
2019-03-16T02:32:21.937Z,81.90
2019-03-16T02:34:47.758Z,81.87
2019-03-16T02:37:13.533Z,81.96
2019-03-16T02:39:39.318Z,82.17
2019-03-16T02:42:05.107Z,82.29
2019-03-16T02:44:30.888Z,82.16
2019-03-16T02:46:56.678Z,82.56
2019-03-16T02:49:22.458Z,82.62
2019-03-16T02:51:48.239Z,82.75
2019-03-16T02:54:14.023Z,82.54
2019-03-16T02:56:39.815Z,82.60
2019-03-16T02:59:05.595Z,82.66
2019-03-16T03:01:31.375Z,82.74
2019-03-16T03:03:57.151Z,82.98
2019-03-16T03:06:22.950Z,83.00
2019-03-16T03:08:48.726Z,83.05
2019-03-16T03:11:14.537Z,82.94
2019-03-16T03:13:40.318Z,82.91
2019-03-16T03:16:06.110Z,82.91
2019-03-16T03:18:31.889Z,82.49
2019-03-16T03:20:57.684Z,82.04
2019-03-16T03:23:23.473Z,81.70
2019-03-16T03:25:49.240Z,81.61
2019-03-16T03:28:15.018Z,81.90
2019-03-16T03:30:40.822Z,82.04
2019-03-16T03:33:06.611Z,82.19
2019-03-16T03:35:32.381Z,82.40
2019-03-16T03:37:58.182Z,82.48
2019-03-16T03:40:23.964Z,82.71
2019-03-16T03:42:49.781Z,83.15
2019-03-16T03:45:15.559Z,83.15
2019-03-16T03:47:41.344Z,83.03
2019-03-16T03:50:09.629Z,83.38
2019-03-16T03:52:35.420Z,83.52
2019-03-16T03:55:01.508Z,83.37
2019-03-16T03:57:27.296Z,83.62
2019-03-16T03:59:53.071Z,83.28
2019-03-16T04:02:18.868Z,83.00
2019-03-16T04:04:44.751Z,83.08
2019-03-16T04:07:10.527Z,83.30
2019-03-16T04:09:36.330Z,83.45
2019-03-16T04:12:02.125Z,83.20
2019-03-16T04:14:27.897Z,83.29
2019-03-16T04:16:53.694Z,82.95
2019-03-16T04:19:19.479Z,82.73
2019-03-16T04:21:45.268Z,82.79
2019-03-16T04:24:11.062Z,83.01
2019-03-16T04:26:36.849Z,82.62
2019-03-16T04:29:02.625Z,82.71
2019-03-16T04:31:28.421Z,83.18
2019-03-16T04:33:54.202Z,82.91
2019-03-16T04:36:20.011Z,83.41
2019-03-16T04:38:45.795Z,83.41
2019-03-16T04:41:11.578Z,83.77
2019-03-16T04:43:37.372Z,83.69
2019-03-16T04:46:03.153Z,84.35
2019-03-16T04:48:28.944Z,84.57
2019-03-16T04:50:54.755Z,84.85
2019-03-16T04:53:20.508Z,85.38
2019-03-16T04:55:46.285Z,85.06
2019-03-16T04:58:12.072Z,85.68
2019-03-16T05:00:37.854Z,85.58
2019-03-16T05:03:03.656Z,85.59
2019-03-16T05:05:29.428Z,85.57
2019-03-16T05:07:55.222Z,85.91
2019-03-16T05:10:21.014Z,85.96
2019-03-16T05:12:46.810Z,85.67
2019-03-16T05:15:12.789Z,86.04
2019-03-16T05:17:38.590Z,86.30
2019-03-16T05:20:07.789Z,86.07
2019-03-16T05:22:33.633Z,86.11
2019-03-16T05:24:59.417Z,85.68
2019-03-16T05:27:25.193Z,86.12
2019-03-16T05:29:50.981Z,86.36
2019-03-16T05:32:16.800Z,86.13
2019-03-16T05:34:55.660Z,86.24
2019-03-16T05:37:10.217Z,86.32
2019-03-16T05:39:36.013Z,86.31
2019-03-16T05:42:05.020Z,86.27
2019-03-16T05:44:29.488Z,86.43
2019-03-16T05:46:55.266Z,86.53
2019-03-16T05:49:21.054Z,86.39
2019-03-16T05:51:46.834Z,86.26
2019-03-16T05:54:12.630Z,86.26
2019-03-16T05:56:38.413Z,86.22
2019-03-16T05:59:04.204Z,86.22
2019-03-16T06:01:29.984Z,86.36
2019-03-16T06:03:55.792Z,86.45
2019-03-16T06:06:21.567Z,86.33
2019-03-16T06:08:47.357Z,86.46
2019-03-16T06:11:13.144Z,86.39
2019-03-16T06:13:39.035Z,86.30
2019-03-16T06:16:04.802Z,86.00
2019-03-16T06:18:30.577Z,86.12
2019-03-16T06:20:56.367Z,86.04
2019-03-16T06:23:23.446Z,85.97
2019-03-16T06:25:49.341Z,85.86
2019-03-16T06:28:15.111Z,85.81
2019-03-16T06:30:40.906Z,85.47
2019-03-16T06:33:06.694Z,85.56
2019-03-16T06:35:32.487Z,85.13
2019-03-16T06:37:58.270Z,85.07
2019-03-16T06:40:24.060Z,84.63
2019-03-16T06:42:49.832Z,84.39
2019-03-16T06:45:15.625Z,84.12
2019-03-16T06:47:41.402Z,83.77
2019-03-16T06:50:11.859Z,83.52
2019-03-16T06:52:37.644Z,83.37
2019-03-16T06:55:05.041Z,83.18
2019-03-16T06:57:31.634Z,82.82
2019-03-16T06:59:57.427Z,82.42
2019-03-16T07:02:23.211Z,82.29
2019-03-16T07:04:48.990Z,81.94
2019-03-16T07:07:14.783Z,81.75
2019-03-16T07:09:40.563Z,81.57
2019-03-16T07:12:06.362Z,81.39
2019-03-16T07:14:32.136Z,81.19
2019-03-16T07:17:02.289Z,81.21
2019-03-16T07:19:25.609Z,81.33
2019-03-16T07:21:51.395Z,81.19
2019-03-16T07:24:17.168Z,81.26
2019-03-16T07:26:42.955Z,80.79
2019-03-16T07:29:08.739Z,80.93
2019-03-16T07:31:34.567Z,80.88
2019-03-16T07:34:00.329Z,80.88
2019-03-16T07:36:26.115Z,80.58
2019-03-16T07:38:51.907Z,80.20
2019-03-16T07:41:17.698Z,80.34
2019-03-16T07:43:43.471Z,80.11
2019-03-16T07:46:09.260Z,79.78
2019-03-16T07:48:35.034Z,79.98
2019-03-16T07:51:00.818Z,79.69
2019-03-16T07:53:26.600Z,79.32
2019-03-16T07:55:52.402Z,79.56
2019-03-16T07:58:18.207Z,79.43
2019-03-16T08:00:43.974Z,78.73
2019-03-16T08:03:09.818Z,78.41
2019-03-16T08:05:35.543Z,78.13
2019-03-16T08:08:01.337Z,78.09
2019-03-16T08:10:27.127Z,78.16
2019-03-16T08:12:52.924Z,78.19
2019-03-16T08:15:18.700Z,77.76
2019-03-16T08:17:44.493Z,77.32
2019-03-16T08:20:10.470Z,77.27
2019-03-16T08:22:36.254Z,76.78
2019-03-16T08:25:02.044Z,76.51
2019-03-16T08:27:27.840Z,75.90
2019-03-16T08:29:53.620Z,76.31
2019-03-16T08:32:19.414Z,75.06
2019-03-16T08:34:45.195Z,74.61
2019-03-16T08:37:10.968Z,74.99
2019-03-16T08:39:36.758Z,75.23
2019-03-16T08:42:02.550Z,75.44
2019-03-16T08:44:28.362Z,74.66
2019-03-16T08:46:54.134Z,74.66
2019-03-16T08:49:19.934Z,73.29
2019-03-16T08:51:45.706Z,74.25
2019-03-16T08:54:11.503Z,74.23
2019-03-16T08:56:37.282Z,73.76
2019-03-16T08:59:03.071Z,73.73
2019-03-16T09:01:28.871Z,73.51
2019-03-16T09:03:54.661Z,73.08
2019-03-16T09:06:20.442Z,72.55
2019-03-16T09:08:46.228Z,71.74
2019-03-16T09:11:12.015Z,72.41
2019-03-16T09:13:37.828Z,71.70
2019-03-16T09:16:03.609Z,72.28
2019-03-16T09:18:29.401Z,72.97
2019-03-16T09:20:55.176Z,73.74
2019-03-16T09:23:20.976Z,72.83
2019-03-16T09:25:46.751Z,72.77
2019-03-16T09:28:18.720Z,72.16
2019-03-16T09:30:40.285Z,73.28
2019-03-16T09:33:06.125Z,71.92
2019-03-16T09:35:31.900Z,72.99
2019-03-16T09:37:57.676Z,73.03
2019-03-16T09:40:23.480Z,74.11
2019-03-16T09:42:49.251Z,74.24
2019-03-16T09:45:15.056Z,74.89
2019-03-16T09:47:40.869Z,74.80
2019-03-16T09:50:07.832Z,74.62
2019-03-16T09:52:33.620Z,74.38
2019-03-16T09:54:59.498Z,74.13
2019-03-16T09:57:25.280Z,73.11
2019-03-16T09:59:51.078Z,73.89
2019-03-16T10:02:16.872Z,74.88
2019-03-16T10:04:42.683Z,76.08
2019-03-16T10:07:08.463Z,77.21
2019-03-16T10:09:34.262Z,77.51
2019-03-16T10:12:00.065Z,79.20
2019-03-16T10:14:25.840Z,79.64
2019-03-16T10:16:51.630Z,80.45
2019-03-16T10:19:17.426Z,80.37
2019-03-16T10:21:43.211Z,81.67
2019-03-16T10:24:09.000Z,82.10
2019-03-16T10:26:37.432Z,82.47
2019-03-16T10:29:02.467Z,82.72
2019-03-16T10:31:28.253Z,82.65
2019-03-16T10:33:54.029Z,81.96
2019-03-16T10:36:19.812Z,81.59
2019-03-16T10:38:45.599Z,80.74
2019-03-16T10:41:11.388Z,80.74
2019-03-16T10:43:37.166Z,80.35
2019-03-16T10:46:02.955Z,80.61
2019-03-16T10:48:28.746Z,81.09
2019-03-16T10:50:54.533Z,80.97
2019-03-16T10:53:20.316Z,82.11
2019-03-16T10:55:46.207Z,82.12
2019-03-16T10:58:11.989Z,82.25
2019-03-16T11:00:37.772Z,82.56
2019-03-16T11:03:03.588Z,82.26
2019-03-16T11:05:29.373Z,82.54
2019-03-16T11:07:55.188Z,82.77
2019-03-16T11:10:20.975Z,82.95
2019-03-16T11:12:46.765Z,83.37
2019-03-16T11:15:12.934Z,84.03
2019-03-16T11:17:38.737Z,83.56
2019-03-16T11:20:09.082Z,82.86
2019-03-16T11:22:34.884Z,82.64
2019-03-16T11:25:00.669Z,83.29
2019-03-16T11:27:26.456Z,81.69
2019-03-16T11:29:52.237Z,82.23
2019-03-16T11:32:18.040Z,83.22
2019-03-16T11:34:43.822Z,83.63
2019-03-16T11:37:09.620Z,84.06
2019-03-16T11:39:35.391Z,83.82
2019-03-16T11:42:01.181Z,84.15
2019-03-16T11:44:26.955Z,84.03
2019-03-16T11:46:52.739Z,84.59
2019-03-16T11:49:18.540Z,85.06
2019-03-16T11:51:44.315Z,85.49
2019-03-16T11:54:10.101Z,86.32
2019-03-16T11:56:35.881Z,86.16
2019-03-16T11:59:01.664Z,87.10
2019-03-16T12:01:27.443Z,86.62
2019-03-16T12:03:53.231Z,86.41
2019-03-16T12:06:19.002Z,86.68
2019-03-16T12:08:44.792Z,86.73
2019-03-16T12:11:10.581Z,86.96
2019-03-16T12:13:36.367Z,87.12
2019-03-16T12:16:02.153Z,86.34
2019-03-16T12:18:27.965Z,87.35
2019-03-16T12:20:53.725Z,88.33
2019-03-16T12:23:19.514Z,87.50
2019-03-16T12:25:45.301Z,87.96
2019-03-16T12:28:11.115Z,86.92
2019-03-16T12:30:36.895Z,86.92
2019-03-16T12:33:02.684Z,86.95
2019-03-16T12:35:28.482Z,87.55
2019-03-16T12:37:54.255Z,87.63
2019-03-16T12:40:20.052Z,87.91
2019-03-16T12:42:45.825Z,88.26
2019-03-16T12:45:13.112Z,88.47
2019-03-16T12:47:38.894Z,87.53
2019-03-16T12:50:06.579Z,87.64
2019-03-16T12:52:32.362Z,87.61
2019-03-16T12:54:58.155Z,88.23
2019-03-16T12:57:23.937Z,88.41
2019-03-16T12:59:49.744Z,88.06
2019-03-16T13:02:15.512Z,88.98
2019-03-16T13:04:41.400Z,89.25
2019-03-16T13:07:07.186Z,89.39
2019-03-16T13:09:32.982Z,89.68
2019-03-16T13:11:58.767Z,89.94
2019-03-16T13:14:24.553Z,89.96
2019-03-16T13:16:50.334Z,90.26
2019-03-16T13:19:16.121Z,90.21
2019-03-16T13:21:43.862Z,90.47
2019-03-16T13:24:09.593Z,90.66
2019-03-16T13:26:35.389Z,90.96
2019-03-16T13:29:01.164Z,90.96
2019-03-16T13:31:26.964Z,91.25
2019-03-16T13:33:53.479Z,91.10
2019-03-16T13:36:19.338Z,91.30
2019-03-16T13:38:45.110Z,91.06
2019-03-16T13:41:10.903Z,91.86
2019-03-16T13:43:36.671Z,91.96
2019-03-16T13:46:02.462Z,91.94
2019-03-16T13:48:28.237Z,92.57
2019-03-16T13:50:54.037Z,92.39
2019-03-16T13:53:19.812Z,92.90
2019-03-16T13:55:45.803Z,92.87
2019-03-16T13:58:11.586Z,93.18
2019-03-16T14:00:37.478Z,93.00
2019-03-16T14:03:03.462Z,92.93
2019-03-16T14:05:29.286Z,93.35
2019-03-16T14:07:55.066Z,93.50
2019-03-16T14:10:26.366Z,93.77
2019-03-16T14:12:52.167Z,94.05
2019-03-16T14:15:17.946Z,94.13
2019-03-16T14:17:43.742Z,94.47
2019-03-16T14:20:12.228Z,94.08
2019-03-16T14:22:38.024Z,93.67
2019-03-16T14:25:07.396Z,93.20
2019-03-16T14:27:33.401Z,93.62
2019-03-16T14:29:59.176Z,93.34
2019-03-16T14:32:24.963Z,93.56
2019-03-16T14:34:50.740Z,93.51
2019-03-16T14:37:16.750Z,93.74
2019-03-16T14:39:42.572Z,93.61
2019-03-16T14:42:08.532Z,93.93
2019-03-16T14:44:34.366Z,94.14
2019-03-16T14:47:00.162Z,94.00
2019-03-16T14:49:25.941Z,93.94
2019-03-16T14:51:51.738Z,94.12
2019-03-16T14:54:17.522Z,94.48
2019-03-16T14:56:43.302Z,94.64
2019-03-16T14:59:09.087Z,94.66
2019-03-16T15:01:34.875Z,94.74
2019-03-16T15:04:00.702Z,94.70
2019-03-16T15:06:26.475Z,95.01
2019-03-16T15:08:52.270Z,94.96
2019-03-16T15:11:18.053Z,95.35
2019-03-16T15:13:43.844Z,95.42
2019-03-16T15:16:09.619Z,95.36
2019-03-16T15:18:35.412Z,95.61
2019-03-16T15:21:01.188Z,95.58
2019-03-16T15:23:26.979Z,95.62
2019-03-16T15:25:52.758Z,95.78
2019-03-16T15:28:18.557Z,95.86
2019-03-16T15:30:50.556Z,95.92
2019-03-16T15:33:12.028Z,95.92
2019-03-16T15:35:37.815Z,95.99
2019-03-16T15:38:03.606Z,96.15
2019-03-16T15:40:29.385Z,96.25
2019-03-16T15:42:55.177Z,96.30
2019-03-16T15:45:26.680Z,96.46
2019-03-16T15:47:52.466Z,96.72
2019-03-16T15:50:18.270Z,96.77
2019-03-16T15:52:44.046Z,97.23
2019-03-16T15:55:09.947Z,97.12
2019-03-16T15:57:35.727Z,97.09
2019-03-16T16:00:07.354Z,97.45
2019-03-16T16:02:33.110Z,97.61
2019-03-16T16:04:58.904Z,97.62
2019-03-16T16:07:24.695Z,97.58
2019-03-16T16:09:50.479Z,97.80
2019-03-16T16:12:16.262Z,97.74
2019-03-16T16:14:42.065Z,97.82
2019-03-16T16:17:07.836Z,97.67
2019-03-16T16:19:33.629Z,97.82
2019-03-16T16:21:59.414Z,97.88
2019-03-16T16:24:25.208Z,97.81
2019-03-16T16:26:50.984Z,97.80
2019-03-16T16:29:17.028Z,97.89
2019-03-16T16:31:42.810Z,98.11
2019-03-16T16:34:08.594Z,97.95
2019-03-16T16:36:34.476Z,97.97
2019-03-16T16:39:00.263Z,97.86
2019-03-16T16:41:26.088Z,98.06
2019-03-16T16:43:51.826Z,98.09
2019-03-16T16:46:17.615Z,98.36
2019-03-16T16:48:43.400Z,98.60
2019-03-16T16:51:09.198Z,98.56
2019-03-16T16:53:34.977Z,98.56
2019-03-16T16:56:00.763Z,98.56
2019-03-16T16:58:26.538Z,98.35
2019-03-16T17:00:52.330Z,98.34
2019-03-16T17:03:18.102Z,98.40
2019-03-16T17:05:43.892Z,98.33
2019-03-16T17:08:09.667Z,98.37
2019-03-16T17:10:35.452Z,98.31
2019-03-16T17:13:01.247Z,98.28
2019-03-16T17:15:27.033Z,98.23
2019-03-16T17:17:52.814Z,98.29
2019-03-16T17:20:18.597Z,98.43
2019-03-16T17:22:44.468Z,98.66
2019-03-16T17:25:11.464Z,98.48
2019-03-16T17:27:37.263Z,98.16
2019-03-16T17:30:26.336Z,98.24
2019-03-16T17:32:52.134Z,98.56
2019-03-16T17:35:17.903Z,98.39
2019-03-16T17:37:43.696Z,98.43
2019-03-16T17:40:13.308Z,98.38
2019-03-16T17:42:39.101Z,98.50
2019-03-16T17:45:07.879Z,98.32
2019-03-16T17:47:33.669Z,98.16
2019-03-16T17:49:59.451Z,98.39
2019-03-16T17:52:25.333Z,98.42
2019-03-16T17:54:51.087Z,98.25
2019-03-16T17:57:16.902Z,98.43
2019-03-16T17:59:42.668Z,98.50
2019-03-16T18:02:08.467Z,98.54
2019-03-16T18:04:34.239Z,98.44
2019-03-16T18:07:00.043Z,98.37
2019-03-16T18:09:25.823Z,98.49
2019-03-16T18:11:51.626Z,98.42
2019-03-16T18:14:17.661Z,98.22
2019-03-16T18:16:43.452Z,98.12
2019-03-16T18:19:09.243Z,98.06
2019-03-16T18:21:35.046Z,98.06
2019-03-16T18:24:00.831Z,98.24
2019-03-16T18:26:26.614Z,98.19
2019-03-16T18:28:52.410Z,98.06
2019-03-16T18:31:18.189Z,98.15
2019-03-16T18:33:43.981Z,97.99
2019-03-16T18:36:11.575Z,97.98
2019-03-16T18:38:37.460Z,98.00
2019-03-16T18:41:03.240Z,97.99
2019-03-16T18:43:29.029Z,98.00
2019-03-16T18:45:54.825Z,97.93
2019-03-16T18:48:20.614Z,97.99
2019-03-16T18:50:46.382Z,97.93
2019-03-16T18:53:12.182Z,97.85
2019-03-16T18:55:37.954Z,97.83
2019-03-16T18:58:03.746Z,97.92
2019-03-16T19:00:29.523Z,97.66
2019-03-16T19:02:55.314Z,97.57
2019-03-16T19:05:21.105Z,97.70
2019-03-16T19:07:46.899Z,97.64
2019-03-16T19:10:14.975Z,97.54
2019-03-16T19:12:40.776Z,97.53
2019-03-16T19:15:11.924Z,97.51
2019-03-16T19:17:37.739Z,97.51
2019-03-16T19:20:07.191Z,97.43
2019-03-16T19:22:32.973Z,97.35
2019-03-16T19:24:58.765Z,97.46
2019-03-16T19:27:24.540Z,97.57
2019-03-16T19:29:50.334Z,97.68
2019-03-16T19:32:17.357Z,97.67
2019-03-16T19:34:43.295Z,97.41
2019-03-16T19:37:09.080Z,97.42
2019-03-16T19:39:34.923Z,97.35
2019-03-16T19:42:00.701Z,97.43
2019-03-16T19:44:26.487Z,97.47
2019-03-16T19:46:52.273Z,97.34
2019-03-16T19:49:18.088Z,97.34
2019-03-16T19:51:43.843Z,97.32
2019-03-16T19:54:09.631Z,97.30
2019-03-16T19:56:35.406Z,97.35
2019-03-16T19:59:01.221Z,97.37
2019-03-16T20:01:26.973Z,97.33
2019-03-16T20:03:52.761Z,97.28
2019-03-16T20:06:25.734Z,96.96
2019-03-16T20:08:46.248Z,96.96
2019-03-16T20:11:12.028Z,97.23
2019-03-16T20:13:37.841Z,97.14
2019-03-16T20:16:03.610Z,97.11
2019-03-16T20:18:29.383Z,97.13
2019-03-16T20:20:55.170Z,96.88
2019-03-16T20:23:20.964Z,96.79
2019-03-16T20:25:46.755Z,96.40
2019-03-16T20:28:12.530Z,95.88
2019-03-16T20:30:38.331Z,95.55
2019-03-16T20:33:04.666Z,95.36
2019-03-16T20:35:30.773Z,94.53
2019-03-16T20:37:56.547Z,94.11
2019-03-16T20:40:22.332Z,93.66
2019-03-16T20:42:48.118Z,93.53
2019-03-16T20:45:14.023Z,93.23
2019-03-16T20:47:39.879Z,92.95
2019-03-16T20:50:14.315Z,92.84
2019-03-16T20:52:40.101Z,92.64
2019-03-16T20:55:07.497Z,92.33
2019-03-16T20:57:33.275Z,91.94
2019-03-16T20:59:59.064Z,91.38
2019-03-16T21:02:24.859Z,90.65
2019-03-16T21:04:50.635Z,90.77
2019-03-16T21:07:16.433Z,90.57
2019-03-16T21:09:42.211Z,90.09
2019-03-16T21:12:08.017Z,89.53
2019-03-16T21:14:33.809Z,89.75
2019-03-16T21:16:59.583Z,89.09
2019-03-16T21:19:25.368Z,88.69
2019-03-16T21:21:51.160Z,88.52
2019-03-16T21:24:16.931Z,87.87
2019-03-16T21:26:51.950Z,87.48
2019-03-16T21:29:10.417Z,87.10
2019-03-16T21:31:36.212Z,86.19
2019-03-16T21:34:01.988Z,86.29
2019-03-16T21:36:27.833Z,85.16
2019-03-16T21:38:53.578Z,85.26
2019-03-16T21:41:19.385Z,85.26
2019-03-16T21:43:45.158Z,85.41
2019-03-16T21:46:10.950Z,84.97
2019-03-16T21:48:36.747Z,84.47
2019-03-16T21:51:02.621Z,85.45
2019-03-16T21:53:28.417Z,84.92
2019-03-16T21:55:54.199Z,84.70
2019-03-16T21:58:20.000Z,84.69
2019-03-16T22:00:45.779Z,84.34
2019-03-16T22:03:11.578Z,83.08
2019-03-16T22:05:37.357Z,83.30
2019-03-16T22:08:03.147Z,82.86
2019-03-16T22:10:28.925Z,82.61
2019-03-16T22:12:54.737Z,82.14
2019-03-16T22:15:20.513Z,82.77
2019-03-16T22:17:46.301Z,81.90
2019-03-16T22:20:19.260Z,82.40
2019-03-16T22:22:45.149Z,81.51
2019-03-16T22:25:11.440Z,80.12
2019-03-16T22:27:37.226Z,80.52
2019-03-16T22:30:15.916Z,80.67
2019-03-16T22:32:41.687Z,80.72
2019-03-16T22:35:09.133Z,80.52
2019-03-16T22:37:35.163Z,80.97
2019-03-16T22:40:00.952Z,81.06
2019-03-16T22:42:26.735Z,81.18
2019-03-16T22:44:52.532Z,80.74
2019-03-16T22:47:18.319Z,80.32
2019-03-16T22:49:44.182Z,80.53
2019-03-16T22:52:10.012Z,80.52
2019-03-16T22:54:35.813Z,80.85
2019-03-16T22:57:01.590Z,80.90
2019-03-16T22:59:27.388Z,81.48
2019-03-16T23:01:53.264Z,81.17
2019-03-16T23:04:19.069Z,80.22
2019-03-16T23:06:44.858Z,81.03
2019-03-16T23:09:10.676Z,80.55
2019-03-16T23:11:36.443Z,80.45
2019-03-16T23:14:02.303Z,80.35
2019-03-16T23:16:28.116Z,80.35
2019-03-16T23:18:54.008Z,80.46
2019-03-16T23:21:19.791Z,80.58
2019-03-16T23:23:45.588Z,80.63
2019-03-16T23:26:11.368Z,80.87
2019-03-16T23:28:37.169Z,81.08
2019-03-16T23:31:02.942Z,80.39
2019-03-16T23:33:28.719Z,80.41
2019-03-16T23:35:54.514Z,80.26
2019-03-16T23:38:20.293Z,81.02
2019-03-16T23:40:46.080Z,80.18
2019-03-16T23:43:11.852Z,80.75
2019-03-16T23:45:37.649Z,80.86
2019-03-16T23:48:03.424Z,80.48
2019-03-16T23:50:29.215Z,80.63
2019-03-16T23:52:55.037Z,80.49
2019-03-16T23:55:20.823Z,80.64
2019-03-16T23:57:46.608Z,80.85
